Time;durP1;ratioP1;P1;durP2;ratioP2;P2;SDS_P1;SDS_P2;PMS_P1;PMS_P2;Temp;Humidity;BMP_temperature;BMP_pressure;BME280_temperature;BME280_humidity;BME280_pressure;Samples;Min_cycle;Max_cycle;Signal;HPM_P1;HPM_P2
2021/09/09 00:02:05;;;;;;;10.50;8.52;;;14.80;95.10;;;;;;5099960;28;20023;-77
2021/09/09 00:04:31;;;;;;;11.15;7.70;;;14.80;95.10;;;;;;5094146;28;20089;-78
2021/09/09 00:06:56;;;;;;;13.68;9.40;;;14.80;95.00;;;;;;5094813;28;20091;-80
2021/09/09 00:09:22;;;;;;;10.68;8.13;;;14.80;94.90;;;;;;5100836;28;20075;-79
2021/09/09 00:11:48;;;;;;;14.32;8.02;;;14.80;94.70;;;;;;5086890;28;20028;-79
2021/09/09 00:14:14;;;;;;;11.32;8.90;;;14.80;94.60;;;;;;5098634;28;20052;-78
2021/09/09 00:16:40;;;;;;;10.80;7.57;;;14.80;94.70;;;;;;5095902;28;20431;-76
2021/09/09 00:19:06;;;;;;;10.75;8.45;;;14.80;94.70;;;;;;5094871;28;20040;-77
2021/09/09 00:21:32;;;;;;;13.13;7.68;;;14.80;94.80;;;;;;5094298;28;20094;-77
2021/09/09 00:23:58;;;;;;;12.05;8.23;;;14.80;94.70;;;;;;5093897;28;20556;-77
2021/09/09 00:26:24;;;;;;;10.50;8.55;;;14.80;94.60;;;;;;5094140;28;20035;-76
2021/09/09 00:28:50;;;;;;;10.50;8.05;;;14.80;94.70;;;;;;5094189;28;20501;-76
2021/09/09 00:31:16;;;;;;;12.40;8.40;;;14.80;94.60;;;;;;5093816;28;20109;-78
2021/09/09 00:33:44;;;;;;;12.63;9.60;;;14.80;94.70;;;;;;5093650;28;20073;-77
2021/09/09 00:36:10;;;;;;;11.60;8.65;;;14.80;94.80;;;;;;5084132;28;20077;-76
2021/09/09 00:38:36;;;;;;;15.50;9.95;;;14.80;94.80;;;;;;5093541;28;20043;-75
2021/09/09 00:41:02;;;;;;;12.60;9.55;;;14.70;94.80;;;;;;5093925;28;20016;-79
2021/09/09 00:43:28;;;;;;;11.57;9.43;;;14.70;94.80;;;;;;5094317;28;20072;-78
2021/09/09 00:45:56;;;;;;;10.20;8.30;;;14.70;94.70;;;;;;5095013;28;20028;-78
2021/09/09 00:48:22;;;;;;;;;;;14.80;94.60;;;;;;5092717;28;20020;-79
2021/09/09 00:50:49;;;;;;;11.77;8.10;;;14.70;94.40;;;;;;5093806;28;20003;-79
2021/09/09 00:53:15;;;;;;;10.85;8.85;;;14.70;94.50;;;;;;5094136;28;20052;-78
2021/09/09 00:55:41;;;;;;;9.35;7.78;;;14.60;94.50;;;;;;5110756;28;20031;-78
2021/09/09 00:58:11;;;;;;;11.10;7.65;;;14.60;94.60;;;;;;5093543;28;20138;-77
2021/09/09 01:00:38;;;;;;;10.95;8.23;;;14.60;94.60;;;;;;5093166;28;20430;-78
2021/09/09 01:03:07;;;;;;;9.20;7.88;;;14.50;94.70;;;;;;5092820;28;20028;-77
2021/09/09 01:05:34;;;;;;;12.75;7.85;;;14.50;94.70;;;;;;5092857;28;20457;-76
2021/09/09 01:08:00;;;;;;;15.45;8.57;;;14.50;94.80;;;;;;5075116;28;20020;-80
2021/09/09 01:10:26;;;;;;;9.13;7.55;;;14.40;94.80;;;;;;5090983;28;20105;-77
2021/09/09 01:12:52;;;;;;;10.93;7.32;;;14.40;94.90;;;;;;5100204;28;20015;-85
2021/09/09 01:15:18;;;;;;;15.13;8.93;;;14.40;94.80;;;;;;5098365;28;20016;-78
2021/09/09 01:17:44;;;;;;;10.30;8.18;;;14.50;94.80;;;;;;5092642;28;20039;-79
2021/09/09 01:20:10;;;;;;;10.88;7.65;;;14.40;94.80;;;;;;5104873;28;20385;-79
2021/09/09 01:22:36;;;;;;;10.18;7.78;;;14.40;94.80;;;;;;5071076;28;20535;-78
2021/09/09 01:25:04;;;;;;;9.73;7.75;;;14.40;94.80;;;;;;5089020;28;20036;-75
2021/09/09 01:27:30;;;;;;;10.40;8.15;;;14.40;94.80;;;;;;5099858;28;20022;-76
2021/09/09 01:29:56;;;;;;;11.35;7.55;;;14.40;94.90;;;;;;5097777;28;20116;-76
2021/09/09 01:32:22;;;;;;;9.98;7.82;;;14.30;95.00;;;;;;5092670;28;20016;-78
2021/09/09 01:34:48;;;;;;;10.20;7.78;;;14.30;95.10;;;;;;5092861;28;20112;-77
2021/09/09 01:37:14;;;;;;;10.85;8.80;;;14.40;95.10;;;;;;5092809;28;20095;-75
2021/09/09 01:39:44;;;;;;;12.57;7.78;;;14.40;95.10;;;;;;5082503;28;20042;-77
2021/09/09 01:42:10;;;;;;;8.60;7.30;;;14.40;95.10;;;;;;5093525;28;20441;-76
2021/09/09 01:44:36;;;;;;;14.15;8.30;;;14.40;95.00;;;;;;5100329;28;20032;-76
2021/09/09 01:47:02;;;;;;;12.98;8.50;;;14.50;94.90;;;;;;5097203;28;20020;-77
2021/09/09 01:49:28;;;;;;;8.73;7.47;;;14.50;94.80;;;;;;5094329;28;20103;-78
2021/09/09 01:51:54;;;;;;;10.88;7.47;;;14.50;94.80;;;;;;5092560;28;20016;-76
2021/09/09 01:54:21;;;;;;;10.88;7.93;;;14.40;94.90;;;;;;5092415;28;20027;-79
2021/09/09 01:56:50;;;;;;;13.05;7.80;;;14.50;94.90;;;;;;5092544;28;20096;-76
2021/09/09 01:59:16;;;;;;;9.52;8.35;;;14.50;94.90;;;;;;5092936;28;20473;-80
2021/09/09 02:01:42;;;;;;;10.65;7.20;;;14.50;94.80;;;;;;5093216;28;20028;-78
2021/09/09 02:04:08;;;;;;;10.77;8.43;;;14.50;94.70;;;;;;5092423;28;20055;-78
2021/09/09 02:06:35;;;;;;;13.02;7.57;;;14.50;94.70;;;;;;5093244;28;20469;-78
2021/09/09 02:09:03;;;;;;;12.13;7.95;;;14.50;94.70;;;;;;5074592;28;20564;-77
2021/09/09 02:11:28;;;;;;;;;;;14.60;94.70;;;;;;5099858;28;20008;-76
2021/09/09 02:13:54;;;;;;;10.63;8.13;;;14.60;94.50;;;;;;5110732;28;19926;-79
2021/09/09 02:16:20;;;;;;;9.70;7.63;;;14.50;94.70;;;;;;5096057;28;20457;-77
2021/09/09 02:18:46;;;;;;;11.60;9.02;;;14.60;94.70;;;;;;5102164;28;20406;-76
2021/09/09 02:21:12;;;;;;;8.02;6.63;;;14.60;94.60;;;;;;5094211;28;20069;-76
2021/09/09 02:23:38;;;;;;;11.77;6.80;;;14.60;94.50;;;;;;5092846;28;20430;-76
2021/09/09 02:26:04;;;;;;;10.70;8.85;;;14.60;94.40;;;;;;5092412;28;20064;-77
2021/09/09 02:28:30;;;;;;;9.88;7.80;;;14.60;94.40;;;;;;5081547;28;20103;-76
2021/09/09 02:30:56;;;;;;;12.45;8.10;;;14.60;94.40;;;;;;5091994;28;20027;-76
2021/09/09 02:33:22;;;;;;;14.55;8.70;;;14.60;94.40;;;;;;5092230;28;20020;-77
2021/09/09 02:35:48;;;;;;;9.43;8.05;;;14.60;94.50;;;;;;5095056;28;20046;-77
2021/09/09 02:38:14;;;;;;;12.43;7.25;;;14.60;94.50;;;;;;5078497;28;20477;-75
2021/09/09 02:40:40;;;;;;;11.52;7.93;;;14.60;94.30;;;;;;5095536;28;20032;-76
2021/09/09 02:43:06;;;;;;;10.90;8.73;;;14.70;94.40;;;;;;5095622;28;20020;-76
2021/09/09 02:45:33;;;;;;;14.02;7.72;;;14.60;94.40;;;;;;5077335;28;20028;-77
2021/09/09 02:47:58;;;;;;;10.05;7.72;;;14.70;94.30;;;;;;5095699;28;20046;-78
2021/09/09 02:50:25;;;;;;;9.07;7.50;;;14.70;94.30;;;;;;5095716;28;20024;-79
2021/09/09 02:52:51;;;;;;;11.65;8.50;;;14.70;94.30;;;;;;5095583;28;20028;-77
2021/09/09 02:55:17;;;;;;;8.20;6.78;;;14.60;94.20;;;;;;5094760;28;20103;-77
2021/09/09 02:57:43;;;;;;;14.33;9.03;;;14.70;94.40;;;;;;5077383;28;20052;-76
2021/09/09 03:00:10;;;;;;;12.60;7.88;;;14.70;94.10;;;;;;5095563;28;20028;-76
2021/09/09 03:02:35;;;;;;;11.07;7.15;;;14.70;94.10;;;;;;5095778;28;20035;-77
2021/09/09 03:05:01;;;;;;;10.05;7.40;;;14.70;94.00;;;;;;5095436;28;20035;-78
2021/09/09 03:07:27;;;;;;;10.93;8.07;;;14.70;94.00;;;;;;5095633;28;20371;-78
2021/09/09 03:09:53;;;;;;;9.40;6.97;;;14.80;94.00;;;;;;5095622;28;20016;-79
2021/09/09 03:12:19;;;;;;;10.02;7.80;;;14.80;94.00;;;;;;5078192;28;20024;-78
2021/09/09 03:14:44;;;;;;;12.85;7.15;;;14.80;94.00;;;;;;5077776;28;20074;-80
2021/09/09 03:17:11;;;;;;;9.88;8.13;;;14.80;93.90;;;;;;5098316;28;20120;-79
2021/09/09 03:19:38;;;;;;;10.07;7.40;;;14.80;93.90;;;;;;5095453;28;20023;-79
2021/09/09 03:22:04;;;;;;;8.93;7.20;;;14.80;93.90;;;;;;5095532;28;20503;-79
2021/09/09 03:24:30;;;;;;;12.13;7.30;;;14.80;93.90;;;;;;5077344;28;20032;-78
2021/09/09 03:26:57;;;;;;;11.80;7.93;;;14.90;93.90;;;;;;5095252;28;20091;-78
2021/09/09 03:29:22;;;;;;;11.70;7.07;;;14.90;93.70;;;;;;5078461;28;20066;-79
2021/09/09 03:31:48;;;;;;;10.25;7.28;;;14.90;93.70;;;;;;5095208;28;20020;-79
2021/09/09 03:34:14;;;;;;;9.60;7.28;;;14.90;93.70;;;;;;5095195;28;20021;-78
2021/09/09 03:36:40;;;;;;;10.77;6.75;;;14.90;93.70;;;;;;5095539;28;20051;-79
2021/09/09 03:39:05;;;;;;;11.57;7.80;;;14.90;93.60;;;;;;5094859;28;20012;-80
2021/09/09 03:41:31;;;;;;;11.35;7.35;;;15.00;93.60;;;;;;5094563;28;20020;-79
2021/09/09 03:43:57;;;;;;;10.50;7.15;;;15.00;93.50;;;;;;5094606;28;20477;-79
2021/09/09 03:46:23;;;;;;;9.65;7.15;;;15.10;93.40;;;;;;5075031;28;20039;-80
2021/09/09 03:48:49;;;;;;;9.48;7.07;;;15.10;93.40;;;;;;5076282;28;20102;-80
2021/09/09 03:51:14;;;;;;;10.68;6.85;;;15.10;93.30;;;;;;5094523;28;20024;-78
2021/09/09 03:53:40;;;;;;;9.30;6.40;;;15.10;93.20;;;;;;5094215;28;20013;-79
2021/09/09 03:56:06;;;;;;;12.23;8.00;;;15.10;93.10;;;;;;5094138;28;20016;-81
2021/09/09 03:58:32;;;;;;;9.38;7.20;;;15.10;93.20;;;;;;5095034;28;20445;-81
2021/09/09 04:00:58;;;;;;;12.50;7.47;;;15.10;93.20;;;;;;5094397;28;20469;-81
2021/09/09 04:03:23;;;;;;;10.38;7.55;;;15.10;93.20;;;;;;5094563;28;20024;-83
2021/09/09 04:05:49;;;;;;;11.00;7.25;;;15.10;93.20;;;;;;5094853;28;20024;-81
2021/09/09 04:08:15;;;;;;;9.40;7.75;;;15.10;93.20;;;;;;5077575;28;20065;-77
2021/09/09 04:10:41;;;;;;;11.38;8.20;;;15.10;93.10;;;;;;5094068;28;20435;-79
2021/09/09 04:13:06;;;;;;;11.15;6.85;;;15.20;93.10;;;;;;5094104;28;20099;-78
2021/09/09 04:15:32;;;;;;;11.35;7.60;;;15.10;93.10;;;;;;5094614;28;20016;-78
2021/09/09 04:17:58;;;;;;;11.02;7.80;;;15.20;93.00;;;;;;5093860;28;20036;-76
2021/09/09 04:20:24;;;;;;;9.40;6.90;;;15.10;93.10;;;;;;5094158;28;20024;-80
2021/09/09 04:22:50;;;;;;;15.30;7.28;;;15.10;93.10;;;;;;5093689;28;20024;-77
2021/09/09 04:25:16;;;;;;;9.73;7.25;;;15.10;93.10;;;;;;5094740;28;20442;-80
2021/09/09 04:27:42;;;;;;;11.23;7.97;;;15.10;93.20;;;;;;5094223;28;20434;-80
2021/09/09 04:30:09;;;;;;;13.73;7.38;;;15.10;93.20;;;;;;5093299;28;20024;-80
2021/09/09 04:32:34;;;;;;;12.45;8.20;;;15.10;93.10;;;;;;5093880;28;20035;-80
2021/09/09 04:35:00;;;;;;;11.68;7.28;;;15.10;93.20;;;;;;5094223;28;20032;-80
2021/09/09 04:37:26;;;;;;;10.27;7.53;;;15.10;93.20;;;;;;5076388;28;20492;-79
2021/09/09 04:39:52;;;;;;;9.57;8.07;;;15.10;93.30;;;;;;5093698;28;20020;-80
2021/09/09 04:42:18;;;;;;;14.27;7.15;;;15.20;93.20;;;;;;5093471;28;20012;-78
2021/09/09 04:44:44;;;;;;;11.50;8.02;;;15.20;93.20;;;;;;5076035;28;20036;-79
2021/09/09 04:47:09;;;;;;;9.30;6.85;;;15.20;93.10;;;;;;5093320;28;20016;-80
2021/09/09 04:49:35;;;;;;;15.35;7.57;;;15.20;93.10;;;;;;5093182;28;20394;-81
2021/09/09 04:52:01;;;;;;;12.77;8.60;;;15.20;93.20;;;;;;5093537;28;20043;-80
2021/09/09 04:54:27;;;;;;;8.65;7.05;;;15.20;93.20;;;;;;5093299;28;20058;-78
2021/09/09 04:56:53;;;;;;;9.02;7.85;;;15.20;93.10;;;;;;5092838;28;20020;-77
2021/09/09 04:59:18;;;;;;;16.23;7.32;;;15.20;93.20;;;;;;5092596;28;20418;-80
2021/09/09 05:01:44;;;;;;;14.23;7.65;;;15.20;93.10;;;;;;5092867;28;20031;-78
2021/09/09 05:04:10;;;;;;;12.40;9.00;;;15.20;93.10;;;;;;5087256;28;20237;-77
2021/09/09 05:06:36;;;;;;;13.73;7.72;;;15.20;93.20;;;;;;5092871;28;20024;-78
2021/09/09 05:09:02;;;;;;;11.02;8.30;;;15.30;93.20;;;;;;5074385;28;20066;-80
2021/09/09 05:11:27;;;;;;;12.38;7.20;;;15.30;93.10;;;;;;5092625;28;20023;-80
2021/09/09 05:13:53;;;;;;;11.98;7.35;;;15.30;92.90;;;;;;5092829;28;20027;-80
2021/09/09 05:16:19;;;;;;;13.07;7.45;;;15.30;93.00;;;;;;5092433;28;20020;-83
2021/09/09 05:18:45;;;;;;;10.18;8.02;;;15.30;93.10;;;;;;5092698;28;20063;-81
2021/09/09 05:21:11;;;;;;;12.25;7.40;;;15.30;93.10;;;;;;5092759;28;20034;-81
2021/09/09 05:23:36;;;;;;;9.45;7.43;;;15.30;93.00;;;;;;5092599;28;20031;-80
2021/09/09 05:26:02;;;;;;;10.13;7.68;;;15.40;93.00;;;;;;5092387;28;20020;-82
2021/09/09 05:28:28;;;;;;;13.52;8.35;;;15.40;92.90;;;;;;5092621;28;20020;-79
2021/09/09 05:30:54;;;;;;;11.05;7.03;;;15.50;92.90;;;;;;5092424;28;20094;-80
2021/09/09 05:33:20;;;;;;;13.32;7.30;;;15.50;92.90;;;;;;5093067;28;20050;-81
2021/09/09 05:35:47;;;;;;;12.52;8.00;;;15.60;92.80;;;;;;5092334;28;20032;-81
2021/09/09 05:38:13;;;;;;;12.67;7.53;;;15.60;92.80;;;;;;5086515;28;20024;-83
2021/09/09 05:40:39;;;;;;;10.45;7.70;;;15.60;92.60;;;;;;5074565;28;20610;-80
2021/09/09 05:43:05;;;;;;;11.85;7.05;;;15.60;92.60;;;;;;5092411;28;20024;-82
2021/09/09 05:45:31;;;;;;;9.80;7.28;;;15.60;92.70;;;;;;5063001;28;20413;-80
2021/09/09 05:47:57;;;;;;;11.80;6.97;;;15.60;92.60;;;;;;5092326;28;20335;-80
2021/09/09 05:50:23;;;;;;;9.07;7.13;;;15.70;92.60;;;;;;5073948;28;20016;-80
2021/09/09 05:52:49;;;;;;;12.98;6.88;;;15.80;92.60;;;;;;5091974;28;20020;-81
2021/09/09 05:55:15;;;;;;;13.88;7.43;;;15.80;92.40;;;;;;5091903;28;20435;-80
2021/09/09 05:57:41;;;;;;;10.93;6.55;;;15.80;92.40;;;;;;5092322;28;20094;-83
2021/09/09 06:00:10;;;;;;;10.32;6.68;;;15.80;92.50;;;;;;5092607;28;20032;-82
2021/09/09 06:02:44;;;;;;;14.02;7.95;;;15.80;92.50;;;;;;5092308;28;20024;-79
2021/09/09 06:05:12;;;;;;;17.45;7.63;;;16.00;92.50;;;;;;5092341;28;20370;-81
2021/09/09 06:07:38;;;;;;;12.52;7.25;;;16.10;92.30;;;;;;5078386;28;20108;-79
2021/09/09 06:10:04;;;;;;;10.65;7.85;;;16.20;92.10;;;;;;5094086;28;20021;-79
2021/09/09 06:12:30;;;;;;;8.73;6.30;;;16.30;92.00;;;;;;5078435;28;20513;-79
2021/09/09 06:14:57;;;;;;;9.35;6.70;;;16.40;91.80;;;;;;5096742;28;20082;-79
2021/09/09 06:17:22;;;;;;;8.75;6.68;;;16.40;91.70;;;;;;5098973;28;20036;-79
2021/09/09 06:19:48;;;;;;;10.32;6.93;;;16.40;91.60;;;;;;5081212;28;20047;-77
2021/09/09 06:22:15;;;;;;;12.88;6.90;;;16.30;91.90;;;;;;5097034;28;20016;-77
2021/09/09 06:24:40;;;;;;;12.43;7.00;;;16.30;91.90;;;;;;5077855;28;20097;-80
2021/09/09 06:27:06;;;;;;;8.70;5.95;;;16.30;91.90;;;;;;5097735;28;20421;-77
2021/09/09 06:29:32;;;;;;;14.25;7.70;;;16.30;91.90;;;;;;5085706;28;20127;-78
2021/09/09 06:31:58;;;;;;;12.23;10.55;;;16.40;91.80;;;;;;5077681;28;20016;-78
2021/09/09 06:34:24;;;;;;;12.30;7.53;;;16.40;91.80;;;;;;5096642;28;20523;-81
2021/09/09 06:36:50;;;;;;;10.88;7.47;;;16.50;91.80;;;;;;5096237;28;20020;-83
2021/09/09 06:39:17;;;;;;;10.05;7.18;;;16.50;91.60;;;;;;5097880;28;20497;-79
2021/09/09 06:41:45;;;;;;;;;;;16.40;91.60;;;;;;5095433;28;20032;-81
2021/09/09 06:44:12;;;;;;;9.55;7.43;;;16.40;91.60;;;;;;5095953;28;19935;-79
2021/09/09 06:46:39;;;;;;;;;;;16.30;91.90;;;;;;5096532;28;20028;-79
2021/09/09 06:49:05;;;;;;;14.60;7.43;;;16.40;91.90;;;;;;5096292;28;19904;-79
2021/09/09 06:51:32;;;;;;;12.15;7.90;;;16.40;91.90;;;;;;5092137;28;20118;-78
2021/09/09 06:53:58;;;;;;;12.05;8.57;;;16.60;91.90;;;;;;5095099;28;20016;-78
2021/09/09 06:56:23;;;;;;;13.38;7.63;;;16.70;91.80;;;;;;5095548;28;20540;-79
2021/09/09 06:58:49;;;;;;;13.07;7.55;;;16.80;91.60;;;;;;5095954;28;20031;-81
2021/09/09 07:01:16;;;;;;;9.60;6.20;;;17.00;91.30;;;;;;5095519;28;20019;-78
2021/09/09 07:03:42;;;;;;;11.13;7.30;;;17.20;90.70;;;;;;5094975;28;20070;-80
2021/09/09 07:06:08;;;;;;;12.05;6.78;;;17.30;90.40;;;;;;5095483;28;20020;-79
2021/09/09 07:08:34;;;;;;;11.85;7.03;;;17.30;90.40;;;;;;5095411;28;20020;-78
2021/09/09 07:11:00;;;;;;;11.27;7.25;;;17.40;90.20;;;;;;5095293;28;20016;-78
2021/09/09 07:13:28;;;;;;;11.05;7.05;;;17.40;90.20;;;;;;5095660;28;20043;-77
2021/09/09 07:15:57;;;;;;;14.23;7.55;;;17.30;90.10;;;;;;5095246;28;20103;-79
2021/09/09 07:18:24;;;;;;;7.68;6.88;;;17.20;90.30;;;;;;5095337;28;20067;-79
2021/09/09 07:20:51;;;;;;;13.98;7.15;;;17.20;90.50;;;;;;5095098;28;20494;-76
2021/09/09 07:23:17;;;;;;;12.43;6.77;;;17.10;90.70;;;;;;5095108;28;20020;-78
2021/09/09 07:25:43;;;;;;;11.32;7.18;;;17.10;90.70;;;;;;5076714;28;20273;-78
2021/09/09 07:28:09;;;;;;;13.00;7.15;;;17.10;90.80;;;;;;5077545;28;20020;-82
2021/09/09 07:30:35;;;;;;;10.38;7.30;;;17.20;90.90;;;;;;5095466;28;20060;-79
2021/09/09 07:33:02;;;;;;;9.32;6.80;;;17.40;90.60;;;;;;5076782;28;20054;-82
2021/09/09 07:35:28;;;;;;;7.93;6.38;;;17.60;90.20;;;;;;5073556;28;20067;-81
2021/09/09 07:37:54;;;;;;;11.98;7.43;;;17.90;90.00;;;;;;5094835;28;20095;-80
2021/09/09 07:40:21;;;;;;;9.88;6.88;;;18.40;88.30;;;;;;5076474;28;20012;-80
2021/09/09 07:42:47;;;;;;;10.43;6.30;;;18.90;86.40;;;;;;5077012;28;20032;-78
2021/09/09 07:45:13;;;;;;;9.85;6.60;;;19.20;84.90;;;;;;5094789;28;20721;-81
2021/09/09 07:47:39;;;;;;;9.98;6.53;;;19.40;83.00;;;;;;5074509;28;20023;-82
2021/09/09 07:50:08;;;;;;;9.68;5.93;;;19.40;82.70;;;;;;5093775;28;20016;-77
2021/09/09 07:52:34;;;;;;;8.07;5.97;;;19.70;82.20;;;;;;5091139;28;20419;-79
2021/09/09 07:55:00;;;;;;;10.70;5.20;;;19.80;81.10;;;;;;5094897;28;20035;-79
2021/09/09 07:57:26;;;;;;;11.35;6.32;;;19.80;80.30;;;;;;5094565;28;20397;-81
2021/09/09 07:59:52;;;;;;;10.75;5.82;;;19.60;80.90;;;;;;5094926;28;20423;-81
2021/09/09 08:02:18;;;;;;;6.95;5.05;;;19.60;81.50;;;;;;5095592;28;20034;-80
2021/09/09 08:04:44;;;;;;;12.35;5.10;;;19.70;80.80;;;;;;5077090;28;20119;-79
2021/09/09 08:07:09;;;;;;;10.52;5.95;;;19.70;80.00;;;;;;5094802;28;20481;-82
2021/09/09 08:09:35;;;;;;;13.27;5.90;;;19.70;80.30;;;;;;5077421;28;20036;-80
2021/09/09 08:12:04;;;;;;;8.15;5.13;;;19.60;80.50;;;;;;5072612;28;20046;-82
2021/09/09 08:14:31;;;;;;;9.10;4.85;;;19.60;80.80;;;;;;5077585;28;20488;-79
2021/09/09 08:16:57;;;;;;;7.88;5.32;;;19.60;80.70;;;;;;5077455;28;20485;-78
2021/09/09 08:19:23;;;;;;;9.50;5.05;;;19.60;80.60;;;;;;5094709;28;20038;-81
2021/09/09 08:21:48;;;;;;;7.03;4.55;;;19.70;80.70;;;;;;5095799;28;20101;-78
2021/09/09 08:24:14;;;;;;;10.30;4.90;;;19.90;79.50;;;;;;5095179;28;20088;-81
2021/09/09 08:26:40;;;;;;;7.63;5.88;;;20.00;79.20;;;;;;5093742;28;20035;-78
2021/09/09 08:29:06;;;;;;;9.50;4.53;;;20.10;79.00;;;;;;5094036;28;20028;-79
2021/09/09 08:31:32;;;;;;;6.82;4.10;;;20.10;79.00;;;;;;5093679;28;20032;-79
2021/09/09 08:33:58;;;;;;;7.22;4.03;;;20.20;78.10;;;;;;5093588;28;20077;-79
2021/09/09 08:36:25;;;;;;;6.88;4.10;;;20.00;77.70;;;;;;5093799;28;20031;-80
2021/09/09 08:38:51;;;;;;;5.17;3.70;;;19.70;78.80;;;;;;5094052;28;20024;-79
2021/09/09 08:41:18;;;;;;;6.20;4.03;;;19.60;79.40;;;;;;5094497;28;20261;-80
2021/09/09 08:43:44;;;;;;;7.13;4.55;;;19.50;80.10;;;;;;5094008;28;20017;-80
2021/09/09 08:46:12;;;;;;;8.93;5.00;;;19.70;80.00;;;;;;5093561;28;20115;-80
2021/09/09 08:48:41;;;;;;;5.38;3.85;;;20.00;79.50;;;;;;5096240;28;20543;-81
2021/09/09 08:51:08;;;;;;;11.13;4.65;;;20.20;78.40;;;;;;5104217;28;20050;-79
2021/09/09 08:53:34;;;;;;;7.00;4.28;;;20.30;77.80;;;;;;5080193;28;20034;-80
2021/09/09 08:56:00;;;;;;;6.72;4.15;;;20.40;78.30;;;;;;5094508;28;20051;-80
2021/09/09 08:58:26;;;;;;;7.85;3.53;;;20.40;77.50;;;;;;5096583;28;20496;-80
2021/09/09 09:01:12;;;;;;;6.40;4.18;;;20.30;76.90;;;;;;5095046;28;20079;-82
2021/09/09 09:03:44;;;;;;;5.88;4.50;;;20.20;77.50;;;;;;5091211;28;20017;-78
2021/09/09 09:06:22;;;;;;;6.00;4.10;;;20.10;77.70;;;;;;5074302;28;20054;-80
2021/09/09 09:09:13;;;;;;;9.52;4.57;;;20.20;78.00;;;;;;5090092;28;20032;-79
2021/09/09 09:11:42;;;;;;;7.88;4.07;;;20.20;77.90;;;;;;5092801;28;20044;-80
2021/09/09 09:14:11;;;;;;;9.77;4.53;;;20.10;77.50;;;;;;5074825;28;20507;-79
2021/09/09 09:16:46;;;;;;;6.60;4.43;;;20.10;77.50;;;;;;5094412;28;20103;-78
2021/09/09 09:19:14;;;;;;;5.80;3.60;;;20.00;77.90;;;;;;5096827;28;20039;-81
2021/09/09 09:21:44;;;;;;;9.32;5.22;;;19.90;77.90;;;;;;5093541;28;20069;-79
2021/09/09 09:24:19;;;;;;;6.50;4.15;;;19.80;78.70;;;;;;5075666;28;20032;-82
2021/09/09 09:27:08;;;;;;;6.25;4.53;;;20.00;78.50;;;;;;5092694;28;20103;-78
2021/09/09 09:29:34;;;;;;;7.57;3.80;;;20.20;77.90;;;;;;5091037;28;20027;-79
2021/09/09 09:32:11;;;;;;;5.95;4.50;;;20.30;77.70;;;;;;5092446;28;20024;-80
2021/09/09 09:34:38;;;;;;;6.53;4.18;;;20.30;77.10;;;;;;5092954;28;20101;-80
2021/09/09 09:37:04;;;;;;;5.80;4.25;;;20.30;77.30;;;;;;5092859;28;20024;-81
2021/09/09 09:39:30;;;;;;;8.43;4.10;;;20.40;77.20;;;;;;5092953;28;20104;-80
2021/09/09 09:42:04;;;;;;;9.40;4.00;;;20.30;76.60;;;;;;5075002;28;20024;-81
2021/09/09 09:44:42;;;;;;;6.95;4.15;;;20.20;76.90;;;;;;5092424;28;20040;-83
2021/09/09 09:47:19;;;;;;;6.18;4.28;;;20.00;77.50;;;;;;5092528;28;20461;-80
2021/09/09 09:49:50;;;;;;;7.53;4.20;;;19.80;78.40;;;;;;5074517;28;20501;-79
2021/09/09 09:52:23;;;;;;;4.38;3.78;;;19.80;78.70;;;;;;5092967;28;20023;-77
2021/09/09 09:54:53;;;;;;;5.63;4.30;;;19.70;78.60;;;;;;5093315;28;20107;-80
2021/09/09 09:57:23;;;;;;;6.97;4.03;;;19.70;79.00;;;;;;5092328;28;20016;-81
2021/09/09 09:59:49;;;;;;;6.70;4.45;;;19.70;79.20;;;;;;5092231;28;20409;-80
2021/09/09 10:02:15;;;;;;;9.63;4.43;;;19.70;79.30;;;;;;5092601;28;20016;-78
2021/09/09 10:04:46;;;;;;;6.72;4.30;;;19.70;79.30;;;;;;5091956;28;20089;-79
2021/09/09 10:07:13;;;;;;;6.65;4.50;;;19.70;79.20;;;;;;5074310;28;20046;-79
2021/09/09 10:09:40;;;;;;;10.75;4.57;;;19.60;79.70;;;;;;5074393;28;20090;-79
2021/09/09 10:12:07;;;;;;;7.32;4.32;;;19.50;79.60;;;;;;5075241;28;20474;-80
2021/09/09 10:14:35;;;;;;;5.63;4.22;;;19.40;79.90;;;;;;5092324;28;20107;-78
2021/09/09 10:17:01;;;;;;;8.10;4.75;;;19.40;80.40;;;;;;5093259;28;20020;-81
2021/09/09 10:19:34;;;;;;;7.50;3.87;;;19.30;80.60;;;;;;5092220;28;20093;-80
2021/09/09 10:22:12;;;;;;;8.35;4.40;;;19.30;80.40;;;;;;5092245;28;20099;-79
2021/09/09 10:24:44;;;;;;;5.90;4.07;;;19.20;80.70;;;;;;5093536;28;20036;-80
2021/09/09 10:27:34;;;;;;;6.78;4.45;;;19.20;80.60;;;;;;5092812;28;20028;-81
2021/09/09 10:30:04;;;;;;;10.20;4.43;;;19.20;80.80;;;;;;5076526;28;20027;-81
2021/09/09 10:32:51;;;;;;;7.72;4.70;;;19.30;80.80;;;;;;5092395;28;20123;-80
2021/09/09 10:35:18;;;;;;;7.20;4.75;;;19.30;80.80;;;;;;5075529;28;20481;-81
2021/09/09 10:37:53;;;;;;;6.45;4.32;;;19.30;80.80;;;;;;5097542;28;20027;-80
2021/09/09 10:40:29;;;;;;;6.90;4.28;;;19.30;80.90;;;;;;5073828;28;20508;-79
2021/09/09 10:43:20;;;;;;;7.45;4.43;;;19.30;80.80;;;;;;5092872;28;20029;-80
2021/09/09 10:45:46;;;;;;;4.95;4.13;;;19.40;81.00;;;;;;5071779;28;20115;-79
2021/09/09 10:48:23;;;;;;;4.53;3.60;;;19.40;80.90;;;;;;5092281;28;20028;-78
2021/09/09 10:51:16;;;;;;;4.57;3.65;;;19.60;81.00;;;;;;5091815;28;20047;-79
2021/09/09 10:53:57;;;;;;;6.15;3.42;;;19.70;80.30;;;;;;5092014;28;20020;-81
2021/09/09 10:56:42;;;;;;;5.60;3.35;;;19.80;79.90;;;;;;5059171;28;20077;-78
2021/09/09 10:59:21;;;;;;;4.95;3.80;;;20.00;79.30;;;;;;5095646;28;20038;-82
2021/09/09 11:01:59;;;;;;;7.07;3.60;;;20.00;79.00;;;;;;5095655;28;20020;-80
2021/09/09 11:04:34;;;;;;;4.47;3.22;;;20.00;78.70;;;;;;5096230;28;20131;-79
2021/09/09 11:07:02;;;;;;;5.72;3.97;;;20.10;78.80;;;;;;5094194;28;20027;-81
2021/09/09 11:09:33;;;;;;;10.48;4.35;;;20.20;78.30;;;;;;5095589;28;20075;-81
2021/09/09 11:12:24;;;;;;;7.60;3.85;;;20.40;77.80;;;;;;5095356;28;20022;-81
2021/09/09 11:14:51;;;;;;;6.32;4.22;;;20.60;77.20;;;;;;5093539;28;20028;-82
2021/09/09 11:17:17;;;;;;;5.78;3.47;;;20.60;76.80;;;;;;5094971;28;20093;-80
2021/09/09 11:19:59;;;;;;;7.50;3.23;;;20.70;76.50;;;;;;5094280;28;20070;-79
2021/09/09 11:22:26;;;;;;;6.72;3.53;;;20.80;75.90;;;;;;5095016;28;20522;-79
2021/09/09 11:24:57;;;;;;;5.93;3.80;;;20.70;75.80;;;;;;5076670;28;20422;-79
2021/09/09 11:27:29;;;;;;;8.25;3.80;;;20.90;76.00;;;;;;5076351;28;20031;-80
2021/09/09 11:30:00;;;;;;;5.38;3.65;;;21.00;75.70;;;;;;5094559;28;20405;-80
2021/09/09 11:32:31;;;;;;;6.80;3.10;;;21.00;75.40;;;;;;5095281;28;20318;-80
2021/09/09 11:35:13;;;;;;;7.67;4.70;;;20.90;75.00;;;;;;5076816;28;20020;-79
2021/09/09 11:37:48;;;;;;;6.22;4.20;;;20.80;75.40;;;;;;5094374;28;20077;-78
2021/09/09 11:40:18;;;;;;;6.80;3.97;;;20.60;75.80;;;;;;5076548;28;20039;-84
2021/09/09 11:42:48;;;;;;;7.35;4.57;;;20.50;76.70;;;;;;5077067;28;20066;-78
2021/09/09 11:45:14;;;;;;;7.13;4.13;;;20.50;76.80;;;;;;5076891;28;20050;-79
2021/09/09 11:47:42;;;;;;;6.93;4.03;;;20.40;76.70;;;;;;5067896;28;20101;-81
2021/09/09 11:50:10;;;;;;;12.35;4.28;;;20.30;77.10;;;;;;5091631;28;20267;-76
2021/09/09 11:52:37;;;;;;;9.20;3.95;;;20.20;78.00;;;;;;5078829;28;20107;-78
2021/09/09 11:55:17;;;;;;;6.80;3.88;;;20.00;78.70;;;;;;5089946;28;20058;-78
2021/09/09 11:57:44;;;;;;;6.05;3.53;;;19.90;79.30;;;;;;5094823;28;20369;-80
2021/09/09 12:00:15;;;;;;;4.72;3.75;;;19.80;79.50;;;;;;5093456;28;20016;-79
2021/09/09 12:02:44;;;;;;;9.20;4.50;;;19.70;80.50;;;;;;5093943;28;20068;-80
2021/09/09 12:05:18;;;;;;;9.00;4.43;;;19.80;80.90;;;;;;5094096;28;20378;-80
2021/09/09 12:07:52;;;;;;;7.53;5.25;;;19.90;80.10;;;;;;5093592;28;20016;-82
2021/09/09 12:10:23;;;;;;;7.18;4.25;;;20.00;80.00;;;;;;5077287;28;20024;-80
2021/09/09 12:13:00;;;;;;;9.07;3.88;;;20.00;79.90;;;;;;5094025;28;20032;-79
2021/09/09 12:15:33;;;;;;;7.18;4.32;;;19.90;79.90;;;;;;5093251;28;20023;-78
2021/09/09 12:18:12;;;;;;;6.88;4.90;;;19.70;80.30;;;;;;5093982;28;20048;-80
2021/09/09 12:20:40;;;;;;;6.25;4.25;;;19.90;80.70;;;;;;5092805;28;20046;-80
2021/09/09 12:23:08;;;;;;;9.98;5.80;;;20.00;80.30;;;;;;5093418;28;20024;-80
2021/09/09 12:25:41;;;;;;;9.77;5.65;;;20.10;79.90;;;;;;5075398;28;20032;-80
2021/09/09 12:28:28;;;;;;;8.30;5.60;;;20.10;79.70;;;;;;5093086;28;20424;-79
2021/09/09 12:30:56;;;;;;;;;;;20.00;79.40;;;;;;5096541;28;20027;-79
2021/09/09 12:33:29;;;;;;;7.20;4.97;;;19.90;79.60;;;;;;5095211;28;19904;-80
2021/09/09 12:36:16;;;;;;;8.52;4.50;;;19.80;80.20;;;;;;5087925;28;20085;-78
2021/09/09 12:38:59;;;;;;;10.15;4.72;;;19.70;80.60;;;;;;5091198;28;20036;-79
2021/09/09 12:41:32;;;;;;;8.75;5.15;;;19.70;80.80;;;;;;5095058;28;20549;-80
2021/09/09 12:44:02;;;;;;;8.25;5.57;;;19.60;80.80;;;;;;5095122;28;20503;-82
2021/09/09 12:46:36;;;;;;;7.72;5.78;;;19.60;81.30;;;;;;5093897;28;20028;-82
2021/09/09 12:49:12;;;;;;;11.20;5.68;;;19.60;81.30;;;;;;5090326;28;20051;-79